createdAt,value
2022-12-17T00:02:19.324Z,97.39
2022-12-17T00:05:04.306Z,97.20
2022-12-17T00:07:49.638Z,97.88
2022-12-17T00:10:34.704Z,97.68
2022-12-17T00:13:20.033Z,97.47
2022-12-17T00:16:10.286Z,97.60
2022-12-17T00:18:55.412Z,97.28
2022-12-17T00:21:41.812Z,97.20
2022-12-17T00:24:27.064Z,97.12
2022-12-17T00:27:11.849Z,97.02
2022-12-17T00:29:57.182Z,96.63
2022-12-17T00:32:42.793Z,96.60
2022-12-17T00:35:27.602Z,96.52
2022-12-17T00:38:12.678Z,96.65
2022-12-17T00:40:58.071Z,96.93
2022-12-17T00:43:43.308Z,96.71
2022-12-17T00:46:28.731Z,96.67
2022-12-17T00:49:13.847Z,96.60
2022-12-17T00:51:59.255Z,97.05
2022-12-17T00:54:44.621Z,97.31
2022-12-17T00:57:30.020Z,96.86
2022-12-17T01:00:15.206Z,97.00
2022-12-17T01:03:00.222Z,97.64
2022-12-17T01:05:45.561Z,97.40
2022-12-17T01:08:33.598Z,97.43
2022-12-17T01:11:20.265Z,97.46
2022-12-17T01:14:05.450Z,97.29
2022-12-17T01:16:50.325Z,97.26
2022-12-17T01:19:35.577Z,97.06
2022-12-17T01:22:20.907Z,97.12
2022-12-17T01:25:06.471Z,96.93
2022-12-17T01:27:51.704Z,97.05
2022-12-17T01:30:37.228Z,97.12
2022-12-17T01:33:28.467Z,97.22
2022-12-17T01:36:17.472Z,97.16
2022-12-17T01:39:02.712Z,97.32
2022-12-17T01:41:48.148Z,96.67
2022-12-17T01:45:12.084Z,96.66
2022-12-17T01:48:03.040Z,96.93
2022-12-17T01:50:52.915Z,96.33
2022-12-17T01:53:42.938Z,96.07
2022-12-17T01:56:29.532Z,95.85
2022-12-17T01:59:15.225Z,96.00
2022-12-17T02:02:00.553Z,95.91
2022-12-17T02:04:51.222Z,95.83
2022-12-17T02:07:42.254Z,95.74
2022-12-17T02:10:36.495Z,95.65
2022-12-17T02:13:31.189Z,96.05
2022-12-17T02:16:27.688Z,96.25
2022-12-17T02:19:24.539Z,96.40
2022-12-17T02:22:36.899Z,96.19
2022-12-17T02:25:35.268Z,96.05
2022-12-17T02:28:21.021Z,96.08
2022-12-17T02:31:06.341Z,96.14
2022-12-17T02:33:51.708Z,96.78
2022-12-17T02:36:36.872Z,96.90
2022-12-17T02:39:22.238Z,96.86
2022-12-17T02:42:11.753Z,96.47
2022-12-17T02:44:59.523Z,96.82
2022-12-17T02:47:58.557Z,96.43
2022-12-17T02:50:43.316Z,96.72
2022-12-17T02:53:28.621Z,96.93
2022-12-17T02:56:13.834Z,96.72
2022-12-17T02:58:59.164Z,96.53
2022-12-17T03:01:44.538Z,97.01
2022-12-17T03:04:29.771Z,96.97
2022-12-17T03:07:15.067Z,96.86
2022-12-17T03:10:00.163Z,97.53
2022-12-17T03:12:45.440Z,96.83
2022-12-17T03:15:30.669Z,96.87
2022-12-17T03:18:15.524Z,97.12
2022-12-17T03:21:00.692Z,97.08
2022-12-17T03:23:45.865Z,97.44
2022-12-17T03:26:30.973Z,97.51
2022-12-17T03:29:16.171Z,97.42
2022-12-17T03:32:01.209Z,97.01
2022-12-17T03:34:46.636Z,97.01
2022-12-17T03:37:31.765Z,97.69
2022-12-17T03:40:17.133Z,97.68
2022-12-17T03:43:02.626Z,97.74
2022-12-17T03:45:47.993Z,97.78
2022-12-17T03:48:34.208Z,98.13
2022-12-17T03:51:20.384Z,98.29
2022-12-17T03:54:06.204Z,98.21
2022-12-17T03:56:51.756Z,98.00
2022-12-17T03:59:36.893Z,97.83
2022-12-17T04:02:22.198Z,97.71
2022-12-17T04:05:07.423Z,97.60
2022-12-17T04:07:52.702Z,97.97
2022-12-17T04:10:38.228Z,98.39
2022-12-17T04:13:23.726Z,99.62
2022-12-17T04:16:09.344Z,100.00
2022-12-17T04:18:54.557Z,100.00
2022-12-17T04:21:39.625Z,100.00
2022-12-17T04:24:25.219Z,100.00
2022-12-17T04:27:15.078Z,100.00
2022-12-17T04:29:59.893Z,100.00
2022-12-17T04:32:44.820Z,100.00
2022-12-17T04:35:30.152Z,100.00
2022-12-17T04:38:15.637Z,100.00
2022-12-17T04:41:00.492Z,100.00
2022-12-17T04:43:45.433Z,100.00
2022-12-17T04:46:30.688Z,100.00
2022-12-17T04:49:15.876Z,100.00
2022-12-17T04:52:00.918Z,100.00
2022-12-17T04:54:45.727Z,100.00
2022-12-17T04:57:31.091Z,100.00
2022-12-17T05:00:16.458Z,100.00
2022-12-17T05:03:01.793Z,100.00
2022-12-17T05:05:47.328Z,100.00
2022-12-17T05:08:35.686Z,100.00
2022-12-17T05:11:35.946Z,100.00
2022-12-17T05:14:21.269Z,100.00
2022-12-17T05:17:06.724Z,100.00
2022-12-17T05:19:52.005Z,100.00
2022-12-17T05:22:37.047Z,100.00
2022-12-17T05:25:22.567Z,100.00
2022-12-17T05:28:07.367Z,100.00
2022-12-17T05:30:52.486Z,100.00
2022-12-17T05:33:37.900Z,100.00
2022-12-17T05:36:23.738Z,100.00
2022-12-17T05:39:09.155Z,100.00
2022-12-17T05:41:54.492Z,100.00
2022-12-17T05:44:39.918Z,100.00
2022-12-17T05:47:25.156Z,100.00
2022-12-17T05:50:10.506Z,100.00
2022-12-17T05:52:55.724Z,100.00
2022-12-17T05:55:40.574Z,100.00
2022-12-17T05:58:29.348Z,100.00
2022-12-17T06:01:19.762Z,100.00
2022-12-17T06:04:05.991Z,100.00
2022-12-17T06:06:51.633Z,100.00
2022-12-17T06:09:37.457Z,100.00
2022-12-17T06:12:22.738Z,100.00
2022-12-17T06:15:07.971Z,100.00
2022-12-17T06:17:52.763Z,100.00
2022-12-17T06:20:38.072Z,100.00
2022-12-17T06:23:26.055Z,100.00
2022-12-17T06:26:11.613Z,100.00
2022-12-17T06:28:56.627Z,100.00
2022-12-17T06:31:41.947Z,100.00
2022-12-17T06:34:27.279Z,100.00
2022-12-17T06:37:12.594Z,100.00
2022-12-17T06:39:57.620Z,100.00
2022-12-17T06:42:42.979Z,100.00
2022-12-17T06:45:28.406Z,100.00
2022-12-17T06:48:27.582Z,100.00
2022-12-17T06:51:13.226Z,100.00
2022-12-17T06:53:58.772Z,100.00
2022-12-17T06:56:44.044Z,100.00
2022-12-17T06:59:29.021Z,100.00
2022-12-17T07:02:14.651Z,100.00
2022-12-17T07:04:59.754Z,100.00
2022-12-17T07:07:45.251Z,100.00
2022-12-17T07:10:30.433Z,100.00
2022-12-17T07:13:23.250Z,100.00
2022-12-17T07:16:09.138Z,100.00
2022-12-17T07:18:55.544Z,100.00
2022-12-17T07:21:40.840Z,100.00
2022-12-17T07:24:26.153Z,100.00
2022-12-17T07:27:11.560Z,100.00
2022-12-17T07:29:56.584Z,100.00
2022-12-17T07:32:41.963Z,100.00
2022-12-17T07:35:27.029Z,100.00
2022-12-17T07:38:22.910Z,100.00
2022-12-17T07:41:08.214Z,100.00
2022-12-17T07:43:53.751Z,100.00
2022-12-17T07:46:39.003Z,100.00
2022-12-17T07:49:26.225Z,100.00
2022-12-17T07:52:12.073Z,100.00
2022-12-17T07:54:57.239Z,100.00
2022-12-17T07:57:42.448Z,100.00
2022-12-17T08:00:28.187Z,100.00
2022-12-17T08:03:17.757Z,100.00
2022-12-17T08:06:03.136Z,100.00
2022-12-17T08:08:48.116Z,100.00
2022-12-17T08:11:33.529Z,100.00
2022-12-17T08:14:18.894Z,100.00
2022-12-17T08:17:04.362Z,100.00
2022-12-17T08:19:49.868Z,100.00
2022-12-17T08:22:35.218Z,100.00
2022-12-17T08:25:20.703Z,100.00
2022-12-17T08:28:11.169Z,100.00
2022-12-17T08:31:01.391Z,100.00
2022-12-17T08:33:46.538Z,100.00
2022-12-17T08:36:31.629Z,100.00
2022-12-17T08:39:16.415Z,100.00
2022-12-17T08:42:04.560Z,100.00
2022-12-17T08:44:49.993Z,100.00
2022-12-17T08:47:35.341Z,100.00
2022-12-17T08:50:21.454Z,100.00
2022-12-17T08:53:06.789Z,100.00
2022-12-17T08:55:51.847Z,100.00
2022-12-17T08:58:37.263Z,100.00
2022-12-17T09:01:22.536Z,100.00
2022-12-17T09:04:07.822Z,100.00
2022-12-17T09:06:52.922Z,100.00
2022-12-17T09:09:38.075Z,100.00
2022-12-17T09:12:23.169Z,100.00
2022-12-17T09:15:08.246Z,100.00
2022-12-17T09:17:56.595Z,100.00
2022-12-17T09:20:41.935Z,100.00
2022-12-17T09:23:27.200Z,100.00
2022-12-17T09:26:14.795Z,100.00
2022-12-17T09:29:00.957Z,100.00
2022-12-17T09:31:46.439Z,100.00
2022-12-17T09:34:32.100Z,100.00
2022-12-17T09:37:17.364Z,100.00
2022-12-17T09:40:02.649Z,100.00
2022-12-17T09:43:05.571Z,100.00
2022-12-17T09:46:13.947Z,100.00
2022-12-17T09:49:19.644Z,100.00
2022-12-17T09:52:05.525Z,100.00
2022-12-17T09:55:00.801Z,100.00
2022-12-17T09:57:53.874Z,100.00
2022-12-17T10:00:43.277Z,100.00
2022-12-17T10:03:38.597Z,100.00
2022-12-17T10:06:30.682Z,100.00
2022-12-17T10:09:20.120Z,100.00
2022-12-17T10:12:05.488Z,100.00
2022-12-17T10:14:50.932Z,100.00
2022-12-17T10:17:41.699Z,100.00
2022-12-17T10:20:56.791Z,99.82
2022-12-17T10:23:52.770Z,100.00
2022-12-17T10:26:41.560Z,100.00
2022-12-17T10:29:36.206Z,99.44
2022-12-17T10:32:34.892Z,100.00
2022-12-17T10:35:52.900Z,100.00
2022-12-17T10:38:40.592Z,100.00
2022-12-17T10:41:46.363Z,99.43
2022-12-17T10:44:57.633Z,99.07
2022-12-17T10:47:45.067Z,98.64
2022-12-17T10:50:34.922Z,98.71
2022-12-17T10:53:21.049Z,98.68
2022-12-17T10:56:15.977Z,98.16
2022-12-17T10:59:09.956Z,98.69
2022-12-17T11:01:58.921Z,98.34
2022-12-17T11:04:52.656Z,97.73
2022-12-17T11:07:48.088Z,97.47
2022-12-17T11:10:40.412Z,97.08
2022-12-17T11:13:34.709Z,97.59
2022-12-17T11:16:21.426Z,96.86
2022-12-17T11:19:23.241Z,97.08
2022-12-17T11:22:11.059Z,96.65
2022-12-17T11:25:02.704Z,96.79
2022-12-17T11:27:55.072Z,96.99
2022-12-17T11:30:41.013Z,97.10
2022-12-17T11:33:40.407Z,96.94
2022-12-17T11:36:38.664Z,95.90
2022-12-17T11:39:51.252Z,94.68
2022-12-17T11:43:01.743Z,94.25
2022-12-17T11:45:54.657Z,94.34
2022-12-17T11:49:02.861Z,94.85
2022-12-17T11:52:05.863Z,94.73
2022-12-17T11:55:07.562Z,94.20
2022-12-17T11:58:14.504Z,93.60
2022-12-17T12:01:39.597Z,92.86
2022-12-17T12:04:39.943Z,93.58
2022-12-17T12:07:49.203Z,93.43
2022-12-17T12:10:43.551Z,92.23
2022-12-17T12:14:02.444Z,92.38
2022-12-17T12:16:58.463Z,92.17
2022-12-17T12:20:03.098Z,91.95
2022-12-17T12:23:00.570Z,92.11
2022-12-17T12:26:15.069Z,91.76
2022-12-17T12:29:13.452Z,91.78
2022-12-17T12:32:06.918Z,90.91
2022-12-17T12:34:56.375Z,90.87
2022-12-17T12:37:42.751Z,91.37
2022-12-17T12:40:40.183Z,91.45
2022-12-17T12:43:42.644Z,92.66
2022-12-17T12:46:40.052Z,92.82
2022-12-17T12:49:31.112Z,92.33
2022-12-17T12:52:18.649Z,93.05
2022-12-17T12:55:03.559Z,93.42
2022-12-17T12:57:54.640Z,92.63
2022-12-17T13:00:45.689Z,92.75
2022-12-17T13:03:54.914Z,93.07
2022-12-17T13:06:39.956Z,93.18
2022-12-17T13:09:30.886Z,92.66
2022-12-17T13:12:01.992Z,91.85
2022-12-17T13:14:31.356Z,91.78
2022-12-17T13:17:01.756Z,91.51
2022-12-17T13:19:31.440Z,91.66
2022-12-17T13:22:10.767Z,91.30
2022-12-17T13:24:37.229Z,90.60
2022-12-17T13:27:04.774Z,90.58
2022-12-17T13:29:37.792Z,89.77
2022-12-17T13:32:12.031Z,89.15
2022-12-17T13:34:53.681Z,89.39
2022-12-17T13:37:23.211Z,88.55
2022-12-17T13:39:52.994Z,88.79
2022-12-17T13:42:28.603Z,88.91
2022-12-17T13:44:56.517Z,88.69
2022-12-17T13:47:30.563Z,88.64
2022-12-17T13:52:46.882Z,88.57
2022-12-17T13:55:25.951Z,87.61
2022-12-17T13:57:53.988Z,87.63
2022-12-17T14:00:25.952Z,87.84
2022-12-17T14:02:53.755Z,87.99
2022-12-17T14:05:37.522Z,87.94
2022-12-17T14:08:05.985Z,88.12
2022-12-17T14:10:33.652Z,87.87
2022-12-17T14:13:14.715Z,88.43
2022-12-17T14:15:48.444Z,89.66
2022-12-17T14:18:18.246Z,90.11
2022-12-17T14:20:45.661Z,89.47
2022-12-17T14:23:33.427Z,89.80
2022-12-17T14:26:00.289Z,90.12
2022-12-17T14:28:31.175Z,90.50
2022-12-17T14:31:26.488Z,91.03
2022-12-17T14:34:20.202Z,91.39
2022-12-17T14:36:47.648Z,90.89
2022-12-17T14:39:32.903Z,90.33
2022-12-17T14:42:25.559Z,90.65
2022-12-17T14:45:07.969Z,90.92
2022-12-17T14:47:36.753Z,91.26
2022-12-17T14:50:12.350Z,91.54
2022-12-17T14:52:50.687Z,92.40
2022-12-17T14:55:36.609Z,92.56
2022-12-17T14:58:14.875Z,93.38
2022-12-17T15:01:09.483Z,94.43
2022-12-17T15:03:42.164Z,94.78
2022-12-17T15:06:11.911Z,94.67
2022-12-17T15:08:47.350Z,95.28
2022-12-17T15:11:16.599Z,95.72
2022-12-17T15:13:43.248Z,96.08
2022-12-17T15:16:11.015Z,95.84
2022-12-17T15:18:38.474Z,94.99
2022-12-17T15:21:05.960Z,94.73
2022-12-17T15:23:33.641Z,94.90
2022-12-17T15:26:00.271Z,94.82
2022-12-17T15:28:27.091Z,95.18
2022-12-17T15:30:53.778Z,95.42
2022-12-17T15:33:20.592Z,96.11
2022-12-17T15:35:47.526Z,95.98
2022-12-17T15:38:14.185Z,96.25
2022-12-17T15:40:41.225Z,96.47
2022-12-17T15:43:13.838Z,96.37
2022-12-17T15:45:42.843Z,96.28
2022-12-17T15:48:10.841Z,96.64
2022-12-17T15:50:38.325Z,97.26
2022-12-17T15:53:05.592Z,98.20
2022-12-17T15:55:32.607Z,99.07
2022-12-17T15:57:59.293Z,100.00
2022-12-17T16:00:26.016Z,100.00
2022-12-17T16:02:53.181Z,100.00
2022-12-17T16:05:21.019Z,100.00
2022-12-17T16:07:48.089Z,100.00
2022-12-17T16:10:15.279Z,100.00
2022-12-17T16:12:42.503Z,99.59
2022-12-17T16:15:10.442Z,99.67
2022-12-17T16:17:37.168Z,99.67
2022-12-17T16:20:05.798Z,99.63
2022-12-17T16:22:32.860Z,99.74
2022-12-17T16:24:59.513Z,99.82
2022-12-17T16:27:26.133Z,100.00
2022-12-17T16:29:52.781Z,100.00
2022-12-17T16:32:20.107Z,100.00
2022-12-17T16:34:46.959Z,100.00
2022-12-17T16:37:14.928Z,100.00
2022-12-17T16:39:41.524Z,100.00
2022-12-17T16:42:08.154Z,100.00
2022-12-17T16:44:34.935Z,100.00
2022-12-17T16:47:01.714Z,100.00
2022-12-17T16:49:28.615Z,100.00
2022-12-17T16:51:57.924Z,100.00
2022-12-17T16:54:27.278Z,100.00
2022-12-17T16:56:54.823Z,100.00
2022-12-17T16:59:22.178Z,100.00
2022-12-17T17:01:50.436Z,100.00
2022-12-17T17:04:19.503Z,100.00
2022-12-17T17:06:49.277Z,100.00
2022-12-17T17:09:17.510Z,100.00
2022-12-17T17:11:49.473Z,100.00
2022-12-17T17:14:18.275Z,100.00
2022-12-17T17:16:44.999Z,100.00
2022-12-17T17:19:11.817Z,100.00
2022-12-17T17:21:59.851Z,100.00
2022-12-17T17:24:26.702Z,100.00
2022-12-17T17:27:00.368Z,100.00
2022-12-17T17:29:27.053Z,100.00
2022-12-17T17:32:09.910Z,100.00
2022-12-17T17:34:39.108Z,100.00
2022-12-17T17:37:05.876Z,100.00
2022-12-17T17:39:34.338Z,100.00
2022-12-17T17:42:01.488Z,100.00
2022-12-17T17:44:28.253Z,100.00
2022-12-17T17:46:54.888Z,100.00
2022-12-17T17:49:22.375Z,100.00
2022-12-17T17:52:09.084Z,100.00
2022-12-17T17:54:36.416Z,100.00
2022-12-17T17:57:03.021Z,100.00
2022-12-17T17:59:33.848Z,100.00
2022-12-17T18:02:02.823Z,100.00
2022-12-17T18:04:29.861Z,100.00
2022-12-17T18:09:43.176Z,100.00
2022-12-17T18:12:28.250Z,100.00
2022-12-17T18:17:41.469Z,100.00
2022-12-17T18:20:09.831Z,100.00
2022-12-17T18:22:36.753Z,100.00
2022-12-17T18:25:03.652Z,100.00
2022-12-17T18:27:30.224Z,100.00
2022-12-17T18:29:56.982Z,100.00
2022-12-17T18:32:23.614Z,100.00
2022-12-17T18:34:50.278Z,100.00
2022-12-17T18:37:16.904Z,100.00
2022-12-17T18:39:43.705Z,100.00
2022-12-17T18:42:28.916Z,100.00
2022-12-17T18:44:55.697Z,100.00
2022-12-17T18:47:22.283Z,100.00
2022-12-17T18:49:49.032Z,100.00
2022-12-17T18:52:17.362Z,100.00
2022-12-17T18:54:44.400Z,100.00
2022-12-17T18:57:11.171Z,100.00
2022-12-17T18:59:38.590Z,100.00
2022-12-17T19:02:05.343Z,100.00
2022-12-17T19:04:33.174Z,100.00
2022-12-17T19:07:00.279Z,100.00
2022-12-17T19:09:31.123Z,100.00
2022-12-17T19:11:58.639Z,100.00
2022-12-17T19:14:25.808Z,100.00
2022-12-17T19:16:54.957Z,100.00
2022-12-17T19:19:21.899Z,100.00
2022-12-17T19:21:49.767Z,100.00
2022-12-17T19:24:18.609Z,100.00
2022-12-17T19:26:46.007Z,100.00
2022-12-17T19:29:14.457Z,100.00
2022-12-17T19:31:41.561Z,100.00
2022-12-17T19:34:11.629Z,100.00
2022-12-17T19:36:40.087Z,100.00
2022-12-17T19:39:08.811Z,100.00
2022-12-17T19:41:35.457Z,100.00
2022-12-17T19:44:05.563Z,100.00
2022-12-17T19:46:34.572Z,100.00
2022-12-17T19:49:02.019Z,100.00
2022-12-17T19:51:30.743Z,100.00
2022-12-17T19:54:00.747Z,100.00
2022-12-17T19:56:33.529Z,100.00
2022-12-17T19:59:02.493Z,100.00
2022-12-17T20:01:31.855Z,100.00
2022-12-17T20:03:59.453Z,100.00
2022-12-17T20:06:31.181Z,100.00
2022-12-17T20:08:59.445Z,100.00
2022-12-17T20:11:33.134Z,100.00
2022-12-17T20:14:03.019Z,100.00
2022-12-17T20:16:32.781Z,100.00
2022-12-17T20:19:01.121Z,100.00
2022-12-17T20:21:28.259Z,100.00
2022-12-17T20:23:57.015Z,100.00
2022-12-17T20:26:24.300Z,100.00
2022-12-17T20:28:51.348Z,100.00
2022-12-17T20:31:18.436Z,100.00
2022-12-17T20:33:45.252Z,100.00
2022-12-17T20:36:15.255Z,100.00
2022-12-17T20:38:43.122Z,100.00
2022-12-17T20:41:11.911Z,100.00
2022-12-17T20:43:38.786Z,100.00
2022-12-17T20:46:06.539Z,100.00
2022-12-17T20:48:33.374Z,100.00
2022-12-17T20:51:05.325Z,100.00
2022-12-17T20:53:33.252Z,100.00
2022-12-17T20:56:04.976Z,100.00
2022-12-17T20:58:31.658Z,100.00
2022-12-17T21:01:06.403Z,100.00
2022-12-17T21:03:34.108Z,100.00
2022-12-17T21:06:22.227Z,100.00
2022-12-17T21:08:51.140Z,100.00
2022-12-17T21:11:20.186Z,100.00
2022-12-17T21:13:46.955Z,99.83
2022-12-17T21:16:16.910Z,99.15
2022-12-17T21:18:43.619Z,98.75
2022-12-17T21:21:22.972Z,98.56
2022-12-17T21:23:50.450Z,98.25
2022-12-17T21:26:18.687Z,97.81
2022-12-17T21:28:47.325Z,97.64
2022-12-17T21:31:30.163Z,97.05
2022-12-17T21:33:59.673Z,97.03
2022-12-17T21:36:28.724Z,96.92
2022-12-17T21:38:55.889Z,97.04
2022-12-17T21:41:28.354Z,97.95
2022-12-17T21:43:57.803Z,98.21
2022-12-17T21:46:27.172Z,98.74
2022-12-17T21:48:54.065Z,99.04
2022-12-17T21:51:21.255Z,99.45
2022-12-17T21:53:49.113Z,99.56
2022-12-17T21:56:18.011Z,99.74
2022-12-17T21:58:45.771Z,99.75
2022-12-17T22:01:19.183Z,99.48
2022-12-17T22:03:50.223Z,99.70
2022-12-17T22:06:23.456Z,99.75
2022-12-17T22:08:52.237Z,99.35
2022-12-17T22:11:24.835Z,99.46
2022-12-17T22:14:15.578Z,98.83
2022-12-17T22:16:49.299Z,99.27
2022-12-17T22:19:21.979Z,99.33
2022-12-17T22:21:50.872Z,99.31
2022-12-17T22:24:21.257Z,99.22
2022-12-17T22:26:48.598Z,99.44
2022-12-17T22:29:34.281Z,99.14
2022-12-17T22:32:19.810Z,98.77
2022-12-17T22:35:12.141Z,98.59
2022-12-17T22:42:06.262Z,98.49
2022-12-17T22:44:33.456Z,99.06
2022-12-17T22:44:40.696Z,98.85
2022-12-17T22:46:17.110Z,99.45
2022-12-17T22:48:43.940Z,99.58
2022-12-17T22:51:13.349Z,100.00
2022-12-17T22:53:48.298Z,100.00
2022-12-17T22:56:21.798Z,100.00
2022-12-17T22:59:02.147Z,100.00
2022-12-17T23:01:28.837Z,100.00
2022-12-17T23:03:57.487Z,100.00
2022-12-17T23:06:25.008Z,100.00
2022-12-17T23:08:52.260Z,100.00
2022-12-17T23:11:24.957Z,100.00
2022-12-17T23:13:54.188Z,100.00
2022-12-17T23:16:21.240Z,100.00
2022-12-17T23:18:49.824Z,100.00
2022-12-17T23:21:20.711Z,100.00
2022-12-17T23:23:47.579Z,100.00
2022-12-17T23:26:21.259Z,99.79
2022-12-17T23:28:48.439Z,99.83
2022-12-17T23:31:19.226Z,99.52
2022-12-17T23:33:46.637Z,99.26
2022-12-17T23:36:19.544Z,98.92
2022-12-17T23:38:47.700Z,99.24
2022-12-17T23:41:58.197Z,99.50
2022-12-17T23:44:24.882Z,99.38
2022-12-17T23:46:51.576Z,98.65
2022-12-17T23:49:18.420Z,98.39
2022-12-17T23:51:45.115Z,98.36
2022-12-17T23:54:11.853Z,98.54
2022-12-17T23:56:42.041Z,98.36
2022-12-17T23:59:12.346Z,98.37
